FAGM METAR and TAF | Updated Today

FAGM METAR

Rand Airport

Observation time: 9:47 hr. ago

FAGM 291200Z 02010KT CAVOK 24/03 Q1022

Need help? Read our tutorial on how to read METARs or read the parsed version below.

Rand Airport (FAGM) METAR

  • Weather conditions on Thu, 29 Sep 2022 12:00:00 +0000 (9:47 hr. ago):
  • Present conditions: Dry
  • Clouds: Clear skies
  • Visibility: Greater than 10 km
  • Wind: 20 degrees at 10 knots
  • Temperature: 24 celsius
  • Dew point: 3 celsius
  • Pressure: 1022 millibars
  • Remarks: None


Useful to know...